Time;durP1;ratioP1;P1;durP2;ratioP2;P2;SDS_P1;SDS_P2;PMS_P1;PMS_P2;Temp;Humidity;BMP_temperature;BMP_pressure;BME280_temperature;BME280_humidity;BME280_pressure;Samples;Min_cycle;Max_cycle;Signal;HPM_P1;HPM_P2
2022/06/17 00:00:19;;;;;;;6.80;2.95;;;19.00;73.60;;;;;;5014868;28;20068;-80
2022/06/17 00:02:46;;;;;;;5.05;2.83;;;18.90;73.70;;;;;;4982338;28;20493;-81
2022/06/17 00:05:12;;;;;;;5.93;2.85;;;18.90;73.90;;;;;;4998221;28;20030;-81
2022/06/17 00:07:39;;;;;;;6.68;3.28;;;18.90;74.20;;;;;;5014817;28;20034;-80
2022/06/17 00:10:15;;;;;;;5.57;3.30;;;18.90;74.70;;;;;;5014460;28;20030;-81
2022/06/17 00:12:41;;;;;;;7.13;3.55;;;18.90;75.00;;;;;;5014759;28;20112;-81
2022/06/17 00:15:12;;;;;;;5.53;3.22;;;18.80;75.00;;;;;;4983079;28;20054;-81
2022/06/17 00:17:37;;;;;;;4.78;3.03;;;18.80;75.10;;;;;;5014922;28;20018;-81
2022/06/17 00:20:06;;;;;;;6.00;3.03;;;18.80;75.20;;;;;;4998056;28;20026;-81
2022/06/17 00:22:32;;;;;;;6.68;3.35;;;18.80;75.20;;;;;;5030774;28;20030;-81
2022/06/17 00:24:58;;;;;;;7.85;2.92;;;18.80;75.30;;;;;;5014107;28;20397;-82
2022/06/17 00:27:23;;;;;;;5.78;2.65;;;18.70;75.40;;;;;;4998614;28;20470;-81
2022/06/17 00:29:49;;;;;;;5.68;2.50;;;18.70;75.50;;;;;;5013851;28;20061;-81
2022/06/17 00:32:15;;;;;;;5.45;2.72;;;18.70;75.70;;;;;;4997729;28;20022;-81
2022/06/17 00:34:40;;;;;;;4.30;2.50;;;18.70;75.80;;;;;;5013921;28;20108;-81
2022/06/17 00:37:12;;;;;;;5.15;2.75;;;18.60;76.00;;;;;;4998320;28;20021;-82
2022/06/17 00:39:38;;;;;;;4.53;2.38;;;18.60;76.20;;;;;;5014218;28;20025;-82
2022/06/17 00:42:18;;;;;;;7.75;2.92;;;18.60;76.30;;;;;;4997598;28;20030;-82
2022/06/17 00:44:48;;;;;;;5.25;2.78;;;18.60;76.50;;;;;;5013879;28;20033;-82
2022/06/17 00:47:26;;;;;;;6.35;3.22;;;18.60;76.70;;;;;;5013795;28;20061;-82
2022/06/17 00:50:01;;;;;;;7.20;2.97;;;18.60;77.10;;;;;;5013818;28;20181;-82
2022/06/17 00:52:45;;;;;;;5.43;3.20;;;18.60;77.40;;;;;;5013714;28;20021;-82
2022/06/17 00:55:17;;;;;;;5.50;3.50;;;18.60;77.90;;;;;;5014260;28;20022;-82
2022/06/17 00:57:43;;;;;;;5.82;3.10;;;18.60;78.10;;;;;;5013194;28;20018;-82
2022/06/17 01:00:18;;;;;;;5.72;3.00;;;18.60;78.20;;;;;;5013850;28;20398;-82
2022/06/17 01:02:49;;;;;;;6.55;3.90;;;18.60;78.20;;;;;;5015584;28;20152;-82
2022/06/17 01:05:18;;;;;;;5.45;3.17;;;18.70;78.40;;;;;;5014160;28;20030;-82
2022/06/17 01:07:59;;;;;;;6.78;3.60;;;18.70;78.40;;;;;;5013884;28;20429;-82
2022/06/17 01:10:27;;;;;;;7.80;3.22;;;18.70;78.50;;;;;;5014061;28;20030;-81
2022/06/17 01:12:56;;;;;;;5.70;3.33;;;18.70;78.50;;;;;;4997629;28;20026;-82
2022/06/17 01:15:25;;;;;;;7.47;4.07;;;18.70;78.50;;;;;;5013452;28;20482;-81
2022/06/17 01:17:51;;;;;;;6.43;3.30;;;18.60;78.40;;;;;;5013392;28;20028;-81
2022/06/17 01:20:18;;;;;;;9.73;4.47;;;18.60;78.40;;;;;;5013398;28;20128;-81
2022/06/17 01:22:46;;;;;;;7.25;4.13;;;18.60;78.40;;;;;;5013530;28;20026;-82
2022/06/17 01:25:27;;;;;;;7.50;4.00;;;18.60;78.30;;;;;;5013415;28;20029;-81
2022/06/17 01:28:04;;;;;;;6.60;3.88;;;18.60;78.30;;;;;;5014031;28;20030;-82
2022/06/17 01:30:39;;;;;;;8.15;4.30;;;18.60;78.20;;;;;;5013759;28;20030;-81
2022/06/17 01:33:11;;;;;;;5.85;4.45;;;18.60;78.20;;;;;;5013416;28;20028;-82
2022/06/17 01:36:13;;;;;;;8.55;4.90;;;18.60;78.10;;;;;;5013021;28;20030;-82
2022/06/17 01:38:46;;;;;;;9.85;4.70;;;18.60;78.00;;;;;;4999847;28;20044;-82
2022/06/17 01:41:14;;;;;;;6.45;4.18;;;18.60;77.80;;;;;;5014202;28;20117;-82
2022/06/17 01:43:51;;;;;;;7.05;3.92;;;18.60;77.70;;;;;;5013152;28;20037;-82
2022/06/17 01:46:21;;;;;;;8.48;4.32;;;18.60;77.80;;;;;;5012835;28;20106;-82
2022/06/17 01:48:59;;;;;;;6.03;3.80;;;18.60;77.80;;;;;;5012642;28;20401;-82
2022/06/17 01:51:27;;;;;;;8.40;3.88;;;18.50;77.80;;;;;;5012847;28;20121;-82
2022/06/17 01:53:57;;;;;;;10.25;3.70;;;18.50;77.70;;;;;;5013893;28;20129;-82
2022/06/17 01:56:28;;;;;;;6.43;3.97;;;18.50;77.70;;;;;;5013475;28;20541;-82
2022/06/17 01:59:06;;;;;;;7.85;4.35;;;18.50;77.80;;;;;;5016000;28;20118;-82
2022/06/17 02:01:36;;;;;;;6.40;4.10;;;18.40;77.80;;;;;;5015495;28;20073;-82
2022/06/17 02:04:10;;;;;;;10.43;4.03;;;18.40;77.80;;;;;;5014643;28;20034;-82
2022/06/17 02:06:43;;;;;;;10.00;4.10;;;18.40;78.00;;;;;;5014634;28;20033;-82
2022/06/17 02:09:09;;;;;;;6.40;3.83;;;18.30;77.90;;;;;;5011965;28;20022;-82
2022/06/17 02:11:35;;;;;;;12.00;4.65;;;18.30;77.80;;;;;;5012308;28;20549;-82
2022/06/17 02:14:06;;;;;;;5.97;3.80;;;18.30;77.90;;;;;;5012712;28;20026;-82
2022/06/17 02:16:36;;;;;;;8.45;3.92;;;18.30;78.00;;;;;;5012463;28;20104;-82
2022/06/17 02:19:02;;;;;;;10.70;4.43;;;18.20;78.00;;;;;;5028951;28;20424;-82
2022/06/17 02:21:35;;;;;;;7.40;3.75;;;18.20;78.10;;;;;;5012737;28;20030;-82
2022/06/17 02:24:03;;;;;;;9.18;5.10;;;18.20;78.20;;;;;;5012287;28;20037;-82
2022/06/17 02:26:32;;;;;;;7.43;4.38;;;18.20;78.30;;;;;;5012298;28;20030;-82
2022/06/17 02:28:58;;;;;;;11.18;4.70;;;18.10;78.30;;;;;;5013546;28;20026;-82
2022/06/17 02:31:23;;;;;;;10.60;4.38;;;18.10;78.40;;;;;;5012286;28;20498;-82
2022/06/17 02:33:51;;;;;;;7.25;3.97;;;18.00;78.40;;;;;;4996018;28;20030;-82
2022/06/17 02:36:29;;;;;;;6.85;4.32;;;18.10;78.50;;;;;;5012152;28;20482;-82
2022/06/17 02:38:55;;;;;;;10.15;4.43;;;18.00;78.60;;;;;;5012171;28;20029;-82
2022/06/17 02:41:21;;;;;;;8.13;4.82;;;18.00;78.60;;;;;;5012382;28;20030;-82
2022/06/17 02:43:55;;;;;;;8.40;4.93;;;18.10;78.80;;;;;;4995982;28;20053;-82
2022/06/17 02:46:28;;;;;;;8.75;4.78;;;18.00;78.90;;;;;;5013513;28;20030;-82
2022/06/17 02:48:59;;;;;;;7.18;4.40;;;18.10;78.90;;;;;;5011939;28;20131;-82
2022/06/17 02:51:29;;;;;;;8.55;4.68;;;18.00;78.90;;;;;;5012110;28;20025;-82
2022/06/17 02:53:57;;;;;;;8.23;5.15;;;18.00;78.90;;;;;;5013451;28;20125;-82
2022/06/17 02:56:27;;;;;;;8.45;5.57;;;17.90;78.90;;;;;;5013485;28;20386;-83
2022/06/17 02:59:10;;;;;;;8.52;5.32;;;17.90;79.00;;;;;;5012187;28;20034;-82
2022/06/17 03:01:38;;;;;;;7.38;4.90;;;17.90;79.20;;;;;;5012340;28;20034;-82
2022/06/17 03:04:20;;;;;;;10.07;5.68;;;17.90;79.30;;;;;;5012525;28;20022;-82
2022/06/17 03:06:47;;;;;;;8.57;5.47;;;17.80;79.40;;;;;;5013328;28;20425;-82
2022/06/17 03:09:23;;;;;;;10.70;6.72;;;17.80;79.50;;;;;;5013128;28;20032;-82
2022/06/17 03:11:56;;;;;;;11.35;6.28;;;17.80;79.60;;;;;;5011779;28;20084;-82
2022/06/17 03:14:24;;;;;;;10.48;6.50;;;17.80;79.80;;;;;;5028213;28;20018;-81
2022/06/17 03:16:57;;;;;;;7.90;5.78;;;17.60;79.70;;;;;;5013128;28;20382;-82
2022/06/17 03:19:25;;;;;;;10.07;6.18;;;17.70;79.90;;;;;;5013356;28;20029;-82
2022/06/17 03:21:51;;;;;;;12.80;6.53;;;17.60;79.90;;;;;;5014343;28;20026;-82
2022/06/17 03:24:30;;;;;;;9.95;6.55;;;17.60;80.10;;;;;;5031867;28;20121;-82
2022/06/17 03:27:01;;;;;;;9.68;5.63;;;17.60;80.30;;;;;;5031810;28;20028;-82
2022/06/17 03:29:28;;;;;;;8.75;5.75;;;17.60;80.30;;;;;;5015181;28;20034;-82
2022/06/17 03:32:02;;;;;;;10.18;6.45;;;17.60;80.40;;;;;;5015421;28;20022;-83
2022/06/17 03:34:31;;;;;;;;;;;17.50;80.50;;;;;;5015540;28;20377;-82
2022/06/17 03:37:03;;;;;;;8.07;5.55;;;17.60;80.60;;;;;;5016407;28;19913;-82
2022/06/17 03:39:37;;;;;;;8.68;5.65;;;17.50;80.40;;;;;;5015134;28;20121;-83
2022/06/17 03:42:06;;;;;;;;;;;17.50;80.70;;;;;;5015864;28;20026;-83
2022/06/17 03:44:38;;;;;;;10.00;5.72;;;17.50;80.80;;;;;;5014997;28;19952;-83
2022/06/17 03:47:27;;;;;;;8.75;6.15;;;17.50;80.70;;;;;;5016227;28;20030;-82
2022/06/17 03:50:02;;;;;;;10.45;6.28;;;17.50;81.10;;;;;;5014948;28;20021;-83
2022/06/17 03:52:56;;;;;;;11.60;6.40;;;17.50;81.20;;;;;;5014797;28;20026;-84
2022/06/17 03:55:22;;;;;;;9.05;6.13;;;17.50;81.40;;;;;;4994249;28;20465;-83
2022/06/17 03:57:52;;;;;;;11.35;6.57;;;17.60;81.50;;;;;;5016244;28;20425;-83
2022/06/17 04:00:43;;;;;;;11.73;6.40;;;17.60;81.50;;;;;;5014774;28;20128;-83
2022/06/17 04:03:14;;;;;;;12.52;7.43;;;17.70;81.60;;;;;;5016256;28;20064;-83
2022/06/17 04:05:42;;;;;;;11.05;6.28;;;17.70;81.50;;;;;;5004832;28;20397;-84
2022/06/17 04:08:10;;;;;;;10.82;6.57;;;17.70;81.50;;;;;;4995492;28;20080;-84
2022/06/17 04:10:36;;;;;;;13.27;6.85;;;17.80;81.60;;;;;;4996508;28;20035;-83
2022/06/17 04:13:03;;;;;;;13.38;6.85;;;17.80;81.60;;;;;;4995528;28;20061;-84
2022/06/17 04:15:55;;;;;;;10.98;7.13;;;17.90;81.60;;;;;;4994789;28;20026;-83
2022/06/17 04:18:20;;;;;;;8.40;5.72;;;17.90;81.60;;;;;;4995621;28;20041;-83
2022/06/17 04:20:56;;;;;;;12.70;6.65;;;18.00;81.40;;;;;;4995821;28;20105;-83
2022/06/17 04:23:24;;;;;;;13.43;6.90;;;18.00;81.30;;;;;;4989063;28;20050;-83
2022/06/17 04:26:21;;;;;;;9.95;6.32;;;18.10;81.30;;;;;;5014689;28;20101;-83
2022/06/17 04:28:49;;;;;;;13.40;6.25;;;18.10;81.20;;;;;;5014002;28;20091;-82
2022/06/17 04:31:20;;;;;;;13.95;6.97;;;18.10;81.00;;;;;;5009413;28;20026;-83
2022/06/17 04:33:53;;;;;;;12.90;5.82;;;18.10;80.90;;;;;;4997229;28;20038;-83
2022/06/17 04:36:23;;;;;;;17.58;6.70;;;18.20;80.90;;;;;;4994475;28;20046;-83
2022/06/17 04:39:00;;;;;;;13.45;6.05;;;18.20;80.80;;;;;;4995346;28;20109;-82
2022/06/17 04:41:31;;;;;;;15.20;6.57;;;18.30;81.40;;;;;;5000067;28;20106;-83
2022/06/17 04:43:59;;;;;;;22.55;6.38;;;18.30;80.70;;;;;;5001852;28;20022;-82
2022/06/17 04:46:44;;;;;;;13.82;6.15;;;18.30;80.60;;;;;;4997485;28;20497;-82
2022/06/17 04:49:19;;;;;;;11.65;5.43;;;18.40;80.50;;;;;;5013931;28;20087;-82
2022/06/17 04:51:46;;;;;;;11.98;5.75;;;18.40;80.40;;;;;;5012340;28;20026;-82
2022/06/17 04:54:12;;;;;;;10.45;6.03;;;18.40;80.10;;;;;;5030363;28;20478;-82
2022/06/17 04:56:46;;;;;;;11.20;6.20;;;18.40;79.80;;;;;;4997568;28;20106;-82
2022/06/17 04:59:32;;;;;;;12.00;5.68;;;18.50;79.70;;;;;;5010388;28;20026;-82
2022/06/17 05:01:59;;;;;;;11.98;5.35;;;18.50;79.50;;;;;;5003555;28;20046;-82
2022/06/17 05:04:25;;;;;;;10.77;5.20;;;18.50;79.30;;;;;;5014960;28;20518;-81
2022/06/17 05:06:51;;;;;;;7.50;5.22;;;18.50;79.00;;;;;;5014044;28;20049;-81
2022/06/17 05:09:29;;;;;;;8.82;5.70;;;18.60;78.80;;;;;;5010300;28;20035;-83
2022/06/17 05:12:05;;;;;;;7.55;5.22;;;18.60;78.60;;;;;;5004674;28;20034;-82
2022/06/17 05:14:43;;;;;;;10.73;5.32;;;18.60;78.40;;;;;;4993704;28;20030;-81
2022/06/17 05:17:09;;;;;;;7.65;5.68;;;18.70;78.30;;;;;;4993568;28;20023;-81
2022/06/17 05:19:35;;;;;;;8.02;5.38;;;18.70;78.30;;;;;;4977533;28;20026;-80
2022/06/17 05:22:13;;;;;;;9.85;4.97;;;18.80;78.40;;;;;;4993719;28;20038;-81
2022/06/17 05:24:39;;;;;;;8.90;4.55;;;18.80;78.10;;;;;;4993459;28;20070;-81
2022/06/17 05:27:04;;;;;;;14.43;5.25;;;18.80;77.80;;;;;;4977337;28;20031;-81
2022/06/17 05:29:32;;;;;;;10.25;5.28;;;18.90;77.60;;;;;;4993514;28;20057;-81
2022/06/17 05:31:57;;;;;;;7.35;4.95;;;18.90;77.50;;;;;;4993375;28;20023;-81
2022/06/17 05:34:24;;;;;;;9.75;4.93;;;18.90;77.20;;;;;;4994538;28;20383;-81
2022/06/17 05:36:52;;;;;;;9.30;4.85;;;18.90;77.00;;;;;;4977089;28;20038;-81
2022/06/17 05:39:17;;;;;;;8.75;4.80;;;18.90;76.90;;;;;;4977163;28;20039;-81
2022/06/17 05:41:43;;;;;;;9.20;5.65;;;18.90;76.80;;;;;;4993443;28;20056;-81
2022/06/17 05:44:09;;;;;;;7.47;4.32;;;19.00;76.60;;;;;;4976868;28;20030;-82
2022/06/17 05:46:34;;;;;;;7.15;5.03;;;19.00;76.40;;;;;;4976954;28;20037;-82
2022/06/17 05:49:00;;;;;;;9.55;5.22;;;19.00;76.40;;;;;;4994358;28;20038;-82
2022/06/17 05:51:27;;;;;;;9.02;4.28;;;19.20;76.30;;;;;;4993545;28;20026;-82
2022/06/17 05:53:53;;;;;;;6.25;3.95;;;19.20;76.20;;;;;;4993025;28;20026;-82
2022/06/17 05:56:19;;;;;;;6.35;4.43;;;19.30;76.10;;;;;;4993150;28;20029;-81
2022/06/17 05:58:44;;;;;;;7.63;4.43;;;19.40;75.90;;;;;;4977195;28;20121;-85
2022/06/17 06:01:10;;;;;;;6.53;3.45;;;19.50;75.30;;;;;;4992936;28;20061;-83
2022/06/17 06:03:36;;;;;;;6.80;3.80;;;19.60;75.00;;;;;;4994271;28;20038;-83
2022/06/17 06:06:01;;;;;;;6.80;3.60;;;19.70;74.70;;;;;;4976744;28;20026;-84
2022/06/17 06:08:27;;;;;;;7.35;3.42;;;19.70;74.50;;;;;;4993059;28;20077;-83
2022/06/17 06:10:53;;;;;;;6.40;3.42;;;19.90;74.50;;;;;;4977033;28;20069;-85
2022/06/17 06:13:22;;;;;;;8.63;3.25;;;20.00;74.30;;;;;;4977763;28;20023;-83
2022/06/17 06:15:50;;;;;;;6.25;2.75;;;20.10;73.80;;;;;;4994953;28;20027;-84
2022/06/17 06:18:27;;;;;;;5.90;2.90;;;20.20;73.40;;;;;;4994776;28;20023;-82
2022/06/17 06:20:53;;;;;;;5.25;2.38;;;20.30;72.90;;;;;;4993457;28;20031;-83
2022/06/17 06:23:19;;;;;;;5.93;2.92;;;20.40;72.30;;;;;;4994250;28;20026;-83
2022/06/17 06:25:44;;;;;;;4.72;2.03;;;20.50;71.90;;;;;;4977190;28;20022;-84
2022/06/17 06:28:17;;;;;;;5.07;2.20;;;20.60;71.60;;;;;;4993052;28;20022;-83
2022/06/17 06:30:49;;;;;;;5.60;2.10;;;20.70;71.30;;;;;;4994913;28;20065;-85
2022/06/17 06:33:14;;;;;;;5.28;2.30;;;20.80;70.90;;;;;;4994598;28;20159;-84
2022/06/17 06:35:40;;;;;;;7.95;2.53;;;20.80;70.70;;;;;;4992852;28;20022;-83
2022/06/17 06:38:06;;;;;;;5.40;2.60;;;20.90;70.70;;;;;;4976838;28;20019;-84
2022/06/17 06:40:33;;;;;;;5.05;2.30;;;21.00;70.40;;;;;;4977437;28;20074;-84
2022/06/17 06:42:58;;;;;;;3.75;2.38;;;21.00;70.20;;;;;;4976773;28;20030;-83
2022/06/17 06:45:29;;;;;;;5.97;2.22;;;21.00;69.90;;;;;;4977125;28;20038;-83
2022/06/17 06:47:56;;;;;;;6.65;2.60;;;21.10;69.90;;;;;;4995194;28;20076;-85
2022/06/17 06:50:26;;;;;;;5.38;2.53;;;21.20;69.60;;;;;;5013296;28;20174;-85
2022/06/17 06:52:51;;;;;;;6.50;2.17;;;21.30;69.40;;;;;;5012886;28;20018;-84
2022/06/17 06:55:17;;;;;;;3.70;1.73;;;21.30;69.30;;;;;;4977723;28;20027;-82
2022/06/17 06:57:58;;;;;;;4.68;1.92;;;21.40;69.00;;;;;;4996857;28;20022;-82
2022/06/17 07:00:27;;;;;;;4.22;1.42;;;21.50;68.70;;;;;;5016260;28;20048;-83
2022/06/17 07:02:53;;;;;;;4.35;1.75;;;21.60;68.60;;;;;;5016298;28;20030;-84
2022/06/17 07:05:19;;;;;;;4.68;1.88;;;21.70;68.30;;;;;;4971568;28;20027;-85
2022/06/17 07:07:45;;;;;;;6.25;1.92;;;21.70;67.90;;;;;;5001932;28;20030;-83
2022/06/17 07:10:17;;;;;;;3.53;1.60;;;21.80;67.60;;;;;;5004184;28;20081;-81
2022/06/17 07:12:43;;;;;;;5.55;1.90;;;21.80;67.50;;;;;;4997074;28;20014;-83
2022/06/17 07:15:10;;;;;;;4.93;1.60;;;22.00;67.30;;;;;;4997143;28;20057;-83
2022/06/17 07:17:36;;;;;;;4.40;1.70;;;22.10;67.20;;;;;;4996449;28;20080;-82
2022/06/17 07:20:02;;;;;;;3.50;1.77;;;22.10;66.70;;;;;;4999752;28;20441;-82
2022/06/17 07:22:28;;;;;;;5.32;1.90;;;22.20;66.80;;;;;;5015420;28;20486;-81
2022/06/17 07:24:54;;;;;;;5.35;1.63;;;22.30;66.90;;;;;;4975914;28;20034;-82
2022/06/17 07:27:20;;;;;;;4.18;1.58;;;22.40;66.80;;;;;;4995846;28;20031;-82
2022/06/17 07:29:45;;;;;;;6.80;1.50;;;22.40;67.20;;;;;;4995881;28;20042;-81
2022/06/17 07:32:11;;;;;;;3.70;1.48;;;22.50;65.70;;;;;;4980025;28;20030;-82
2022/06/17 07:34:36;;;;;;;3.78;1.77;;;22.50;65.50;;;;;;4979353;28;20038;-81
2022/06/17 07:39:58;;;;;;;3.30;1.15;;;22.60;64.70;;;;;;4996538;28;20412;-81
2022/06/17 07:42:39;;;;;;;3.22;1.20;;;22.50;64.00;;;;;;4997128;28;20421;-81
2022/06/17 07:45:13;;;;;;;5.75;1.42;;;22.50;64.00;;;;;;5016598;28;20484;-82
2022/06/17 07:47:42;;;;;;;5.00;1.65;;;22.60;64.00;;;;;;5015222;28;20029;-83
2022/06/17 07:50:12;;;;;;;3.20;1.38;;;22.60;63.90;;;;;;4983152;28;20557;-83
2022/06/17 07:52:39;;;;;;;3.53;1.20;;;22.60;63.70;;;;;;5009070;28;20478;-85
2022/06/17 07:55:06;;;;;;;4.60;1.30;;;22.60;63.20;;;;;;4996072;28;20014;-83
2022/06/17 07:57:32;;;;;;;4.25;1.55;;;22.60;63.10;;;;;;4995896;28;20455;-83
2022/06/17 07:59:59;;;;;;;4.65;1.45;;;22.60;63.60;;;;;;4996787;28;20073;-82
2022/06/17 08:02:25;;;;;;;5.03;1.25;;;22.60;62.70;;;;;;4995707;28;20026;-81
2022/06/17 08:04:51;;;;;;;4.38;1.90;;;22.60;62.50;;;;;;4995768;28;20121;-82
2022/06/17 08:07:17;;;;;;;3.30;1.23;;;22.70;62.50;;;;;;4994621;28;20034;-81
2022/06/17 08:09:43;;;;;;;4.50;1.02;;;22.70;62.20;;;;;;4978701;28;20026;-81
2022/06/17 08:12:11;;;;;;;4.35;1.25;;;22.70;61.80;;;;;;4996213;28;20042;-81
2022/06/17 08:14:43;;;;;;;3.92;1.15;;;22.80;61.60;;;;;;4994987;28;20026;-81
2022/06/17 08:17:12;;;;;;;4.03;1.08;;;22.80;61.20;;;;;;4995137;28;20030;-80
2022/06/17 08:19:38;;;;;;;7.05;2.28;;;22.80;60.60;;;;;;4996436;28;20034;-81
2022/06/17 08:22:04;;;;;;;6.20;1.77;;;22.90;60.10;;;;;;4978750;28;20026;-83
2022/06/17 08:24:30;;;;;;;4.53;1.50;;;22.80;60.20;;;;;;4978530;28;20031;-78
2022/06/17 08:26:55;;;;;;;5.95;1.92;;;22.90;60.40;;;;;;4995097;28;20030;-82
2022/06/17 08:29:22;;;;;;;6.38;1.67;;;22.90;59.70;;;;;;4994815;28;20023;-79
2022/06/17 08:31:48;;;;;;;3.72;1.65;;;22.90;58.90;;;;;;4994791;28;20019;-81
2022/06/17 08:34:13;;;;;;;4.13;1.77;;;23.00;59.10;;;;;;4979223;28;20510;-79
2022/06/17 08:36:40;;;;;;;6.65;1.55;;;23.00;59.20;;;;;;4996882;28;20410;-88
2022/06/17 08:39:10;;;;;;;5.32;1.67;;;23.10;59.10;;;;;;5014349;28;20030;-86
2022/06/17 08:42:01;;;;;;;3.60;1.35;;;23.10;58.90;;;;;;5006379;28;20023;-83
2022/06/17 08:44:57;;;;;;;5.68;1.75;;;23.20;59.00;;;;;;4995185;28;20030;-84
2022/06/17 08:47:40;;;;;;;6.55;1.35;;;23.20;58.70;;;;;;4995352;28;20018;-79
2022/06/17 08:50:40;;;;;;;6.65;1.40;;;23.30;58.20;;;;;;4995387;28;20030;-86
2022/06/17 08:53:36;;;;;;;6.18;1.58;;;23.30;57.90;;;;;;4994943;28;20034;-84
2022/06/17 08:56:19;;;;;;;2.25;1.30;;;23.40;57.60;;;;;;4994815;28;20018;-83
2022/06/17 08:59:29;;;;;;;4.30;1.98;;;23.50;57.20;;;;;;4995497;28;20494;-86
2022/06/17 09:02:21;;;;;;;4.18;1.67;;;23.50;56.80;;;;;;4994752;28;20490;-88
2022/06/17 09:05:21;;;;;;;6.60;1.83;;;23.50;56.70;;;;;;4994343;28;20022;-89
2022/06/17 09:08:14;;;;;;;5.32;1.90;;;23.60;56.90;;;;;;4994262;28;20042;-85
2022/06/17 09:10:59;;;;;;;4.63;1.35;;;23.70;56.60;;;;;;4994334;28;20125;-87
2022/06/17 09:13:58;;;;;;;5.75;1.63;;;23.70;56.30;;;;;;4994179;28;20069;-82
2022/06/17 09:16:39;;;;;;;3.00;1.20;;;23.80;56.20;;;;;;4994349;28;20474;-83
2022/06/17 09:19:07;;;;;;;4.50;1.58;;;23.90;56.20;;;;;;4995125;28;20453;-86
2022/06/17 09:21:51;;;;;;;4.88;1.98;;;24.00;56.20;;;;;;4994105;28;20539;-81
2022/06/17 09:24:28;;;;;;;8.15;2.05;;;24.00;55.20;;;;;;4993852;28;20031;-82
2022/06/17 09:27:01;;;;;;;5.40;1.83;;;24.00;54.80;;;;;;4994818;28;20049;-83
2022/06/17 09:29:49;;;;;;;6.10;1.60;;;24.10;54.90;;;;;;4993938;28;20085;-84
2022/06/17 09:32:24;;;;;;;5.20;1.73;;;24.10;54.90;;;;;;4994010;28;20018;-84
2022/06/17 09:34:58;;;;;;;5.18;2.13;;;24.10;54.70;;;;;;4993515;28;20378;-86
2022/06/17 09:37:45;;;;;;;6.03;2.38;;;24.20;54.70;;;;;;4993444;28;20121;-87
2022/06/17 09:40:25;;;;;;;6.22;2.03;;;24.30;54.50;;;;;;4993776;28;20038;-87
2022/06/17 09:43:06;;;;;;;5.50;1.38;;;24.30;54.20;;;;;;4993699;28;20475;-82
2022/06/17 09:45:38;;;;;;;3.00;1.80;;;24.40;54.10;;;;;;4993625;28;20077;-88
2022/06/17 09:48:20;;;;;;;7.88;1.88;;;24.50;54.20;;;;;;4993514;28;20102;-86
2022/06/17 09:50:49;;;;;;;4.03;1.63;;;24.50;54.30;;;;;;4993575;28;20036;-86
2022/06/17 09:53:24;;;;;;;4.03;1.80;;;24.60;54.30;;;;;;4993646;28;20030;-83
2022/06/17 09:55:58;;;;;;;6.80;1.73;;;24.70;54.30;;;;;;4993244;28;20422;-89
2022/06/17 09:58:43;;;;;;;5.50;1.92;;;24.70;54.00;;;;;;4993516;28;20026;-83
2022/06/17 10:01:10;;;;;;;5.53;1.55;;;24.80;53.50;;;;;;5011106;28;20085;-83
2022/06/17 10:03:38;;;;;;;7.55;1.70;;;24.80;53.40;;;;;;5007739;28;20092;-83
2022/06/17 10:06:04;;;;;;;4.88;1.20;;;24.90;53.20;;;;;;4993254;28;20026;-85
2022/06/17 10:08:38;;;;;;;7.18;1.92;;;25.00;53.10;;;;;;4994606;28;20037;-87
2022/06/17 10:11:16;;;;;;;6.45;1.92;;;25.00;52.40;;;;;;4993472;28;20034;-86
2022/06/17 10:14:06;;;;;;;5.72;2.13;;;25.10;53.20;;;;;;5001668;28;20382;-84
2022/06/17 10:19:51;;;;;;;5.10;1.30;;;25.20;52.10;;;;;;5014324;28;20061;-82
2022/06/17 10:22:44;;;;;;;2.70;1.17;;;25.30;52.00;;;;;;4997148;28;20034;-77
2022/06/17 10:25:27;;;;;;;5.88;1.20;;;25.40;52.10;;;;;;5013678;28;20101;-81
2022/06/17 10:28:14;;;;;;;3.38;1.40;;;25.50;52.20;;;;;;5012232;28;20038;-80
2022/06/17 10:31:08;;;;;;;6.68;1.92;;;25.50;52.20;;;;;;5012691;28;20026;-85
2022/06/17 10:33:36;;;;;;;3.80;1.10;;;25.60;52.10;;;;;;5016894;28;20030;-86
2022/06/17 10:36:04;;;;;;;2.50;1.00;;;25.60;52.10;;;;;;5016252;28;20025;-85
2022/06/17 10:38:41;;;;;;;5.55;1.73;;;25.70;52.10;;;;;;5000344;28;20500;-85
2022/06/17 10:41:07;;;;;;;3.30;1.25;;;25.90;52.00;;;;;;5016100;28;20030;-83
2022/06/17 10:43:38;;;;;;;4.88;1.33;;;26.00;51.70;;;;;;5017424;28;20530;-86
2022/06/17 10:46:06;;;;;;;5.38;1.65;;;26.20;51.50;;;;;;5016219;28;20025;-84
2022/06/17 10:48:48;;;;;;;6.50;1.50;;;26.40;51.40;;;;;;5000044;28;20030;-85
2022/06/17 10:51:15;;;;;;;5.07;1.30;;;26.50;51.00;;;;;;5017876;28;20030;-83
2022/06/17 10:53:55;;;;;;;3.63;1.20;;;26.70;50.80;;;;;;5016106;28;20386;-84
2022/06/17 10:56:36;;;;;;;5.60;1.10;;;26.90;50.80;;;;;;5015930;28;20481;-81
2022/06/17 10:59:10;;;;;;;3.28;1.05;;;27.20;49.80;;;;;;5016121;28;20045;-83
2022/06/17 11:01:56;;;;;;;2.70;1.00;;;27.40;49.50;;;;;;5015671;28;20053;-86
2022/06/17 11:04:34;;;;;;;2.85;0.77;;;27.60;48.80;;;;;;5017370;28;20022;-86
2022/06/17 11:07:34;;;;;;;3.55;0.90;;;27.70;48.60;;;;;;5015821;28;20029;-82
2022/06/17 11:10:15;;;;;;;2.90;1.02;;;28.00;48.00;;;;;;5015826;28;20036;-86
2022/06/17 11:12:43;;;;;;;4.22;1.00;;;28.10;47.60;;;;;;5016583;28;20120;-85
2022/06/17 11:15:26;;;;;;;3.47;1.00;;;28.30;47.30;;;;;;5015812;28;20022;-80
2022/06/17 11:18:16;;;;;;;3.65;0.95;;;28.50;46.60;;;;;;5014624;28;20026;-82
2022/06/17 11:21:00;;;;;;;4.50;1.23;;;28.70;46.60;;;;;;4999655;28;20038;-82
2022/06/17 11:23:31;;;;;;;2.45;0.80;;;28.90;46.30;;;;;;5012177;28;20537;-82
2022/06/17 11:26:08;;;;;;;2.78;0.90;;;29.10;46.40;;;;;;4995928;28;20431;-82
2022/06/17 11:28:38;;;;;;;2.60;0.77;;;29.40;45.90;;;;;;4995807;28;20023;-82
2022/06/17 11:31:14;;;;;;;2.78;0.85;;;29.60;45.70;;;;;;5012065;28;20490;-80
2022/06/17 11:33:56;;;;;;;6.18;0.93;;;29.70;45.20;;;;;;5012779;28;20471;-79
2022/06/17 11:36:25;;;;;;;2.65;0.95;;;29.90;45.40;;;;;;5011961;28;20486;-81
2022/06/17 11:38:51;;;;;;;3.45;1.10;;;30.10;45.10;;;;;;4996823;28;20072;-83
2022/06/17 11:41:23;;;;;;;2.95;1.00;;;30.30;44.80;;;;;;4996740;28;20030;-87
2022/06/17 11:43:50;;;;;;;2.97;1.05;;;30.50;44.40;;;;;;4996445;28;20049;-85
2022/06/17 11:46:20;;;;;;;4.40;1.20;;;30.60;44.30;;;;;;4997212;28;20033;-87
2022/06/17 11:48:57;;;;;;;3.88;1.15;;;30.80;44.10;;;;;;5012182;28;20026;-87
2022/06/17 11:51:40;;;;;;;3.20;1.00;;;31.00;43.60;;;;;;5013361;28;20041;-87
2022/06/17 11:54:18;;;;;;;1.85;0.88;;;31.10;43.50;;;;;;5011951;28;20113;-85
2022/06/17 11:56:48;;;;;;;2.67;0.98;;;31.40;43.50;;;;;;5011925;28;20019;-86
2022/06/17 11:59:28;;;;;;;4.20;1.08;;;31.50;43.00;;;;;;4995913;28;20030;-84
2022/06/17 12:01:54;;;;;;;3.88;1.02;;;31.70;42.90;;;;;;4996541;28;20045;-82
2022/06/17 12:04:47;;;;;;;3.95;1.13;;;31.90;42.80;;;;;;5017019;28;20030;-80
2022/06/17 12:07:43;;;;;;;5.57;1.55;;;32.10;41.90;;;;;;5015123;28;20022;-82
2022/06/17 12:10:36;;;;;;;3.97;1.33;;;32.20;41.40;;;;;;5016851;28;20030;-82
2022/06/17 12:13:26;;;;;;;5.07;2.20;;;32.30;41.30;;;;;;5000792;28;20028;-82
2022/06/17 12:16:01;;;;;;;5.00;1.70;;;32.50;41.20;;;;;;4998683;28;20023;-83
2022/06/17 12:18:40;;;;;;;3.67;1.40;;;32.60;40.80;;;;;;4997731;28;20023;-82
2022/06/17 12:21:31;;;;;;;3.97;1.58;;;32.80;40.60;;;;;;5001869;28;20109;-83
2022/06/17 12:24:24;;;;;;;5.30;1.50;;;33.00;40.30;;;;;;5007507;28;20091;-83
2022/06/17 12:26:55;;;;;;;2.55;1.50;;;33.10;40.00;;;;;;5014294;28;20117;-82
2022/06/17 12:29:30;;;;;;;6.32;1.17;;;33.20;40.20;;;;;;5013778;28;20021;-83
2022/06/17 12:32:07;;;;;;;2.72;1.45;;;33.30;39.60;;;;;;5014422;28;20062;-81
2022/06/17 12:34:33;;;;;;;3.08;1.45;;;33.50;39.40;;;;;;5014615;28;20018;-84
2022/06/17 12:37:07;;;;;;;4.68;2.03;;;33.60;39.30;;;;;;5014105;28;20386;-83
2022/06/17 12:39:42;;;;;;;3.35;1.33;;;33.70;39.00;;;;;;5013816;28;20403;-82
2022/06/17 12:42:29;;;;;;;2.42;1.23;;;33.90;38.90;;;;;;5017920;28;20033;-82
2022/06/17 12:45:07;;;;;;;2.40;1.08;;;33.90;38.50;;;;;;5014727;28;20443;-81
2022/06/17 12:47:59;;;;;;;8.05;1.27;;;34.10;38.30;;;;;;5014609;28;20053;-82
2022/06/17 12:53:36;;;;;;;4.63;1.30;;;34.30;38.00;;;;;;5015068;28;20037;-81
2022/06/17 12:56:12;;;;;;;6.05;1.73;;;34.40;37.80;;;;;;5015467;28;20121;-84
2022/06/17 12:59:13;;;;;;;5.45;1.60;;;34.50;37.60;;;;;;5014768;28;20076;-82
2022/06/17 13:01:39;;;;;;;3.35;1.73;;;34.60;37.20;;;;;;5014053;28;20038;-81
2022/06/17 13:04:12;;;;;;;4.68;1.95;;;34.60;37.40;;;;;;5015253;28;20483;-82
2022/06/17 13:06:58;;;;;;;4.35;1.67;;;34.60;37.40;;;;;;5014271;28;20072;-83
2022/06/17 13:09:42;;;;;;;4.25;1.25;;;34.70;38.00;;;;;;5013913;28;20060;-84
2022/06/17 13:12:39;;;;;;;3.28;1.13;;;34.90;37.50;;;;;;5013741;28;20596;-82
2022/06/17 13:15:15;;;;;;;3.00;1.63;;;35.00;37.40;;;;;;4994884;28;20041;-83
2022/06/17 13:17:41;;;;;;;3.08;1.25;;;35.10;37.50;;;;;;5013746;28;20022;-81
2022/06/17 13:20:48;;;;;;;2.63;1.00;;;35.20;37.40;;;;;;5013622;28;20034;-83
2022/06/17 13:23:34;;;;;;;3.40;1.27;;;35.20;37.20;;;;;;4919033;29;20028;-83
2022/06/17 13:26:02;;;;;;;5.38;1.23;;;35.40;37.30;;;;;;4918938;29;20067;-82